Time;durP1;ratioP1;P1;durP2;ratioP2;P2;SDS_P1;SDS_P2;PMS_P1;PMS_P2;Temp;Humidity;BMP_temperature;BMP_pressure;BME280_temperature;BME280_humidity;BME280_pressure;Samples;Min_cycle;Max_cycle;Signal;HPM_P1;HPM_P2
2023/08/18 00:00:00;;;;;;;3.22;1.38;;;18.10;99.90;;;;;;5066048;28;20028;-83
2023/08/18 00:02:26;;;;;;;4.72;1.40;;;18.00;99.90;;;;;;5067166;28;20383;-83
2023/08/18 00:04:52;;;;;;;2.30;1.05;;;18.00;99.90;;;;;;5041882;28;20095;-84
2023/08/18 00:07:18;;;;;;;3.78;1.50;;;18.00;99.90;;;;;;5043221;28;20068;-83
2023/08/18 00:09:43;;;;;;;4.22;1.27;;;18.00;99.90;;;;;;5067628;28;20434;-83
2023/08/18 00:12:10;;;;;;;4.68;1.20;;;18.00;99.90;;;;;;5045682;28;20040;-84
2023/08/18 00:14:35;;;;;;;2.80;1.00;;;18.00;99.90;;;;;;5039305;28;20127;-83
2023/08/18 00:17:01;;;;;;;4.95;1.33;;;18.00;99.90;;;;;;5067920;28;20453;-83
2023/08/18 00:19:27;;;;;;;2.97;1.00;;;18.00;99.90;;;;;;5059477;28;20037;-83
2023/08/18 00:21:52;;;;;;;5.40;1.27;;;18.00;99.90;;;;;;5049076;28;20120;-84
2023/08/18 00:24:18;;;;;;;4.75;1.63;;;18.00;99.90;;;;;;5047067;28;20044;-83
2023/08/18 00:26:45;;;;;;;3.60;1.23;;;18.00;99.90;;;;;;5044063;28;20037;-83
2023/08/18 00:29:11;;;;;;;3.90;1.27;;;18.00;99.90;;;;;;5047833;28;20056;-83
2023/08/18 00:31:37;;;;;;;4.35;1.77;;;18.00;99.90;;;;;;5040304;28;20165;-83
2023/08/18 00:34:03;;;;;;;4.22;1.30;;;17.90;99.90;;;;;;5050270;28;20126;-83
2023/08/18 00:36:30;;;;;;;2.25;1.00;;;17.90;99.90;;;;;;5042049;28;20045;-83
2023/08/18 00:38:58;;;;;;;3.47;1.38;;;17.90;99.90;;;;;;5066210;28;20044;-84
2023/08/18 00:41:24;;;;;;;3.60;1.08;;;17.90;99.90;;;;;;5063788;28;20048;-83
2023/08/18 00:43:50;;;;;;;5.10;1.40;;;17.90;99.90;;;;;;5046828;28;20044;-83
2023/08/18 00:46:17;;;;;;;2.97;1.20;;;17.90;99.90;;;;;;5043143;28;20045;-84
2023/08/18 00:48:44;;;;;;;3.95;1.20;;;17.90;99.90;;;;;;5044935;28;20041;-83
2023/08/18 00:51:11;;;;;;;3.45;1.27;;;17.90;99.90;;;;;;5040077;28;20048;-83
2023/08/18 00:53:39;;;;;;;4.05;1.33;;;17.90;99.90;;;;;;5048787;28;20044;-83
2023/08/18 00:56:07;;;;;;;4.55;1.35;;;17.90;99.90;;;;;;5030818;28;20503;-84
2023/08/18 00:58:34;;;;;;;3.42;1.65;;;17.90;99.90;;;;;;5041256;28;20036;-83
2023/08/18 01:01:02;;;;;;;5.30;1.30;;;17.90;99.90;;;;;;5042670;28;20085;-83
2023/08/18 01:03:27;;;;;;;3.50;1.60;;;17.90;99.90;;;;;;5048652;28;20033;-83
2023/08/18 01:05:53;;;;;;;4.97;1.50;;;17.90;99.90;;;;;;5059428;28;20042;-83
2023/08/18 01:08:19;;;;;;;4.03;1.40;;;17.90;99.90;;;;;;5040939;28;20048;-83
2023/08/18 01:11:17;;;;;;;4.65;1.42;;;17.90;99.90;;;;;;5041454;28;20047;-83
2023/08/18 01:13:55;;;;;;;3.70;1.40;;;17.90;99.90;;;;;;5052082;28;20036;-84
2023/08/18 01:16:24;;;;;;;5.18;1.40;;;17.80;99.90;;;;;;5061372;28;20040;-83
2023/08/18 01:18:51;;;;;;;5.68;1.33;;;17.80;99.90;;;;;;5042211;28;20503;-84
2023/08/18 01:21:17;;;;;;;2.55;1.10;;;17.80;99.90;;;;;;5061182;28;20040;-84
2023/08/18 01:23:43;;;;;;;4.95;1.65;;;17.80;99.90;;;;;;5047152;28;20036;-83
2023/08/18 01:26:09;;;;;;;3.95;1.48;;;17.80;99.90;;;;;;5066955;28;20178;-83
2023/08/18 01:28:36;;;;;;;2.97;1.17;;;17.80;99.90;;;;;;5047082;28;20131;-83
2023/08/18 01:31:06;;;;;;;3.72;1.42;;;17.80;99.90;;;;;;5044261;28;20044;-83
2023/08/18 01:33:40;;;;;;;5.25;1.30;;;17.80;99.90;;;;;;5038636;28;20044;-83
2023/08/18 01:36:11;;;;;;;5.47;1.50;;;17.70;99.90;;;;;;5042821;28;20049;-83
2023/08/18 01:38:38;;;;;;;6.72;1.40;;;17.80;99.90;;;;;;5047048;28;20036;-83
2023/08/18 01:41:06;;;;;;;5.53;1.50;;;17.80;99.90;;;;;;5042699;28;20041;-83
2023/08/18 01:43:33;;;;;;;3.78;1.13;;;17.70;99.90;;;;;;5044852;28;20032;-83
2023/08/18 01:46:03;;;;;;;4.57;1.25;;;17.70;99.90;;;;;;5041529;28;20056;-83
2023/08/18 01:48:28;;;;;;;3.53;1.38;;;17.70;99.90;;;;;;5047726;28;20048;-83
2023/08/18 01:50:54;;;;;;;6.95;1.50;;;17.70;99.90;;;;;;5046697;28;20090;-83
2023/08/18 01:53:20;;;;;;;4.53;1.27;;;17.70;99.90;;;;;;5047224;28;20126;-83
2023/08/18 01:55:45;;;;;;;4.18;1.35;;;17.70;99.90;;;;;;5043936;28;20459;-83
2023/08/18 01:58:11;;;;;;;3.17;1.67;;;17.70;99.90;;;;;;5056684;28;20037;-83
2023/08/18 02:00:37;;;;;;;3.25;1.45;;;17.70;99.90;;;;;;5065494;28;20035;-83
2023/08/18 02:03:02;;;;;;;2.30;1.05;;;17.60;99.90;;;;;;5040542;28;20056;-83
2023/08/18 02:05:29;;;;;;;3.72;1.52;;;17.70;99.90;;;;;;5041641;28;20079;-83
2023/08/18 02:07:55;;;;;;;4.25;1.48;;;17.70;99.90;;;;;;5031758;28;20109;-83
2023/08/18 02:10:21;;;;;;;2.85;1.20;;;17.70;99.90;;;;;;5047472;28;20446;-83
2023/08/18 02:12:46;;;;;;;3.78;1.60;;;17.70;99.90;;;;;;5028917;28;20043;-84
2023/08/18 02:15:12;;;;;;;5.30;1.40;;;17.70;99.90;;;;;;5065745;28;20033;-83
2023/08/18 02:17:40;;;;;;;3.65;1.40;;;17.60;99.90;;;;;;5060361;28;20050;-83
2023/08/18 02:20:08;;;;;;;2.38;1.15;;;17.70;99.90;;;;;;5048042;28;20048;-83
2023/08/18 02:22:34;;;;;;;3.55;1.52;;;17.70;99.90;;;;;;5042998;28;20115;-83
2023/08/18 02:25:00;;;;;;;5.75;1.77;;;17.70;99.90;;;;;;5059997;28;20086;-83
2023/08/18 02:27:26;;;;;;;5.43;1.80;;;17.60;99.90;;;;;;5050654;28;20040;-83
2023/08/18 02:29:52;;;;;;;6.25;2.33;;;17.60;99.90;;;;;;5060986;28;20090;-83
2023/08/18 02:32:18;;;;;;;2.55;1.40;;;17.60;99.90;;;;;;5045770;28;20495;-83
2023/08/18 02:34:45;;;;;;;5.20;1.80;;;17.70;99.90;;;;;;5049653;28;20048;-83
2023/08/18 02:37:11;;;;;;;5.32;1.63;;;17.60;99.90;;;;;;5038979;28;20037;-83
2023/08/18 02:39:38;;;;;;;4.22;1.85;;;17.60;99.90;;;;;;5068283;28;20032;-83
2023/08/18 02:42:04;;;;;;;3.75;1.80;;;17.60;99.90;;;;;;5048506;28;20479;-83
2023/08/18 02:44:31;;;;;;;5.75;2.40;;;17.60;99.90;;;;;;5048222;28;20043;-83
2023/08/18 02:46:56;;;;;;;5.57;1.92;;;17.60;99.90;;;;;;5050066;28;20064;-83
2023/08/18 02:49:22;;;;;;;3.55;1.90;;;17.60;99.90;;;;;;5049626;28;20464;-83
2023/08/18 02:51:48;;;;;;;5.93;2.25;;;17.60;99.90;;;;;;5063464;28;20083;-83
2023/08/18 02:54:13;;;;;;;3.75;1.67;;;17.60;99.90;;;;;;5046795;28;20077;-83
2023/08/18 02:56:40;;;;;;;4.78;2.13;;;17.60;99.90;;;;;;5064129;28;20056;-83
2023/08/18 02:59:06;;;;;;;4.20;1.95;;;17.50;99.90;;;;;;5035077;28;20038;-83
2023/08/18 03:01:32;;;;;;;7.75;2.67;;;17.50;99.90;;;;;;5062133;28;20101;-83
2023/08/18 03:03:58;;;;;;;6.55;2.42;;;17.60;99.90;;;;;;5046295;28;20620;-83
2023/08/18 03:06:24;;;;;;;4.53;2.33;;;17.50;99.90;;;;;;5047532;28;20044;-83
2023/08/18 03:08:49;;;;;;;4.15;2.22;;;17.50;99.90;;;;;;5050186;28;20037;-83
2023/08/18 03:11:15;;;;;;;3.45;2.00;;;17.50;99.90;;;;;;5051097;28;20102;-83
2023/08/18 03:13:41;;;;;;;2.72;1.58;;;17.50;99.90;;;;;;5051202;28;20253;-83
2023/08/18 03:16:07;;;;;;;4.68;2.10;;;17.50;99.90;;;;;;5045324;28;20038;-84
2023/08/18 03:18:33;;;;;;;6.05;2.55;;;17.50;99.90;;;;;;5035249;28;20028;-83
2023/08/18 03:21:03;;;;;;;3.33;1.90;;;17.50;99.90;;;;;;5056860;28;20037;-83
2023/08/18 03:23:29;;;;;;;5.75;2.75;;;17.50;99.90;;;;;;5056268;28;20033;-83
2023/08/18 03:26:00;;;;;;;7.78;3.17;;;17.50;99.90;;;;;;5043791;28;20036;-84
2023/08/18 03:28:26;;;;;;;5.70;2.25;;;17.50;99.90;;;;;;5045901;28;20041;-83
2023/08/18 03:30:52;;;;;;;5.53;2.90;;;17.50;99.90;;;;;;5043463;28;20471;-83
2023/08/18 03:33:17;;;;;;;7.10;3.08;;;17.50;99.90;;;;;;5068659;28;20039;-83
2023/08/18 03:35:48;;;;;;;4.25;2.00;;;17.50;99.90;;;;;;5067237;28;20055;-83
2023/08/18 03:38:14;;;;;;;5.28;2.70;;;17.50;99.90;;;;;;5039004;28;20484;-83
2023/08/18 03:40:40;;;;;;;6.20;3.13;;;17.50;99.90;;;;;;5063957;28;20033;-84
2023/08/18 03:43:05;;;;;;;5.82;3.40;;;17.50;99.90;;;;;;5038409;28;20049;-83
2023/08/18 03:45:31;;;;;;;6.55;2.78;;;17.50;99.90;;;;;;5057421;28;20040;-83
2023/08/18 03:47:56;;;;;;;7.72;3.50;;;17.50;99.90;;;;;;5030890;28;20111;-83
2023/08/18 03:50:22;;;;;;;6.22;3.22;;;17.50;99.90;;;;;;5043045;28;20045;-83
2023/08/18 03:52:48;;;;;;;5.07;3.10;;;17.50;99.90;;;;;;5040801;28;20484;-83
2023/08/18 03:55:14;;;;;;;4.63;2.65;;;17.50;99.90;;;;;;5035361;28;20036;-83
2023/08/18 03:57:39;;;;;;;7.82;3.80;;;17.50;99.90;;;;;;5047428;28;20048;-83
2023/08/18 04:00:09;;;;;;;6.90;3.33;;;17.50;99.90;;;;;;5040783;28;20043;-83
2023/08/18 04:02:35;;;;;;;7.43;3.55;;;17.40;99.90;;;;;;5030085;28;20053;-83
2023/08/18 04:05:00;;;;;;;6.88;3.38;;;17.40;99.90;;;;;;5041727;28;20178;-83
2023/08/18 04:07:26;;;;;;;7.15;3.67;;;17.40;99.90;;;;;;5041607;28;20404;-84
2023/08/18 04:09:52;;;;;;;4.85;2.60;;;17.40;99.90;;;;;;5047390;28;20043;-83
2023/08/18 04:12:17;;;;;;;5.88;2.85;;;17.40;99.90;;;;;;5036752;28;20434;-83
2023/08/18 04:14:43;;;;;;;5.50;3.35;;;17.40;99.90;;;;;;5040883;28;20041;-83
2023/08/18 04:17:09;;;;;;;5.80;3.60;;;17.40;99.90;;;;;;5045999;28;20045;-83
2023/08/18 04:19:35;;;;;;;8.07;4.03;;;17.40;99.90;;;;;;5017739;28;20048;-83
2023/08/18 04:22:01;;;;;;;9.95;3.95;;;17.40;99.90;;;;;;5040824;28;20052;-81
2023/08/18 04:24:26;;;;;;;7.60;3.78;;;17.40;99.90;;;;;;5037510;28;20044;-81
2023/08/18 04:26:59;;;;;;;11.07;5.05;;;17.40;99.90;;;;;;5047036;28;20419;-81
2023/08/18 04:29:26;;;;;;;7.53;3.72;;;17.40;99.90;;;;;;5046857;28;20195;-81
2023/08/18 04:31:51;;;;;;;8.90;4.30;;;17.40;99.90;;;;;;5042301;28;20061;-81
2023/08/18 04:34:17;;;;;;;4.70;3.03;;;17.40;99.90;;;;;;5037451;28;20118;-83
2023/08/18 04:36:44;;;;;;;6.97;4.40;;;17.40;99.90;;;;;;5041930;28;20048;-83
2023/08/18 04:39:13;;;;;;;10.27;4.80;;;17.40;99.90;;;;;;5022301;28;20464;-84
2023/08/18 04:41:38;;;;;;;8.65;4.47;;;17.40;99.90;;;;;;5038596;28;20701;-83
2023/08/18 04:44:05;;;;;;;9.07;4.43;;;17.50;99.90;;;;;;5026429;28;20090;-84
2023/08/18 04:46:31;;;;;;;7.22;4.05;;;17.40;99.90;;;;;;5046308;28;20053;-83
2023/08/18 04:48:57;;;;;;;9.50;5.28;;;17.40;99.90;;;;;;5041685;28;20099;-84
2023/08/18 04:51:23;;;;;;;7.40;3.70;;;17.40;99.90;;;;;;5046366;28;20045;-84
2023/08/18 04:53:49;;;;;;;6.45;3.35;;;17.40;99.90;;;;;;5047461;28;20048;-83
2023/08/18 04:56:15;;;;;;;11.88;4.70;;;17.40;99.90;;;;;;5045093;28;20043;-84
2023/08/18 04:58:41;;;;;;;6.50;4.03;;;17.40;99.90;;;;;;5027516;28;20025;-84
2023/08/18 05:01:07;;;;;;;9.00;4.70;;;17.30;99.90;;;;;;5038252;28;20037;-83
2023/08/18 05:03:33;;;;;;;10.57;5.10;;;17.40;99.90;;;;;;5030443;28;20669;-83
2023/08/18 05:06:28;;;;;;;8.82;4.50;;;17.40;99.90;;;;;;5033738;28;20049;-84
2023/08/18 05:08:53;;;;;;;10.60;4.90;;;17.40;99.90;;;;;;5043133;28;20056;-83
2023/08/18 05:11:19;;;;;;;7.50;3.60;;;17.40;99.90;;;;;;5042355;28;20476;-83
2023/08/18 05:13:45;;;;;;;10.13;5.50;;;17.40;99.90;;;;;;5031164;28;20033;-83
2023/08/18 05:16:10;;;;;;;7.20;3.38;;;17.40;99.90;;;;;;5056145;28;20072;-83
2023/08/18 05:18:36;;;;;;;7.30;4.45;;;17.40;99.90;;;;;;5038488;28;20033;-83
2023/08/18 05:21:02;;;;;;;8.00;5.28;;;17.40;99.90;;;;;;5024860;28;20044;-83
2023/08/18 05:23:29;;;;;;;8.27;4.35;;;17.40;99.90;;;;;;5037984;28;20108;-83
2023/08/18 05:25:56;;;;;;;7.90;3.83;;;17.40;99.90;;;;;;5040001;28;20051;-83
2023/08/18 05:28:23;;;;;;;4.53;2.83;;;17.40;99.90;;;;;;5021617;28;20043;-83
2023/08/18 05:30:50;;;;;;;8.88;4.60;;;17.40;99.90;;;;;;5030754;28;20053;-84
2023/08/18 05:33:16;;;;;;;7.63;4.50;;;17.40;99.90;;;;;;5026653;28;20041;-84
2023/08/18 05:35:42;;;;;;;11.15;4.85;;;17.40;99.90;;;;;;5040266;28;20502;-84
2023/08/18 05:38:11;;;;;;;9.73;4.03;;;17.40;99.90;;;;;;5041429;28;20223;-88
2023/08/18 05:40:44;;;;;;;8.45;5.05;;;17.40;99.90;;;;;;5022021;28;20033;-85
2023/08/18 05:43:11;;;;;;;6.70;4.55;;;17.40;99.90;;;;;;5042755;28;20483;-84
2023/08/18 05:45:36;;;;;;;10.98;4.95;;;17.40;99.90;;;;;;5045884;28;20037;-84
2023/08/18 05:48:04;;;;;;;7.85;4.68;;;17.50;99.90;;;;;;5041506;28;20037;-84
2023/08/18 05:50:30;;;;;;;5.95;3.40;;;17.50;99.90;;;;;;5037898;28;20080;-84
2023/08/18 05:52:56;;;;;;;7.45;3.85;;;17.50;99.90;;;;;;5024492;28;20511;-83
2023/08/18 05:55:23;;;;;;;8.55;5.00;;;17.50;99.90;;;;;;5038513;28;20033;-84
2023/08/18 05:57:49;;;;;;;8.20;4.30;;;17.50;99.90;;;;;;5027558;28;20056;-83
2023/08/18 06:00:15;;;;;;;7.88;4.22;;;17.50;99.90;;;;;;5043118;28;20041;-83
2023/08/18 06:02:42;;;;;;;10.70;4.80;;;17.50;99.90;;;;;;5043048;28;20124;-83
2023/08/18 06:05:11;;;;;;;10.43;4.88;;;17.50;99.90;;;;;;5044200;28;20039;-83
2023/08/18 06:07:39;;;;;;;7.55;3.47;;;17.60;99.90;;;;;;5041882;28;20045;-83
2023/08/18 06:10:06;;;;;;;7.72;3.63;;;17.60;99.90;;;;;;5038557;28;20049;-83
2023/08/18 06:12:31;;;;;;;9.52;4.55;;;17.60;99.90;;;;;;5042144;28;20460;-83
2023/08/18 06:14:57;;;;;;;8.00;3.78;;;17.60;99.90;;;;;;5034355;28;20072;-84
2023/08/18 06:17:23;;;;;;;11.35;4.80;;;17.60;99.90;;;;;;5042962;28;20047;-82
2023/08/18 06:19:48;;;;;;;8.27;4.18;;;17.70;99.90;;;;;;5024124;28;20052;-82
2023/08/18 06:22:14;;;;;;;8.13;3.50;;;17.60;99.90;;;;;;5037169;28;20464;-83
2023/08/18 06:24:41;;;;;;;13.50;4.60;;;17.70;99.90;;;;;;5029419;28;20857;-83
2023/08/18 06:27:07;;;;;;;10.02;3.45;;;17.70;99.90;;;;;;5042734;28;20063;-85
2023/08/18 06:29:32;;;;;;;7.38;3.55;;;17.70;99.90;;;;;;5021038;28;20456;-84
2023/08/18 06:31:58;;;;;;;8.45;3.40;;;17.80;99.90;;;;;;5046076;28;20361;-85
2023/08/18 06:34:24;;;;;;;7.47;3.75;;;17.80;99.90;;;;;;5037318;28;20072;-84
2023/08/18 06:36:50;;;;;;;11.32;4.70;;;17.70;99.90;;;;;;5044122;28;20040;-85
2023/08/18 06:39:16;;;;;;;8.45;4.28;;;17.80;99.90;;;;;;5044127;28;20041;-84
2023/08/18 06:41:42;;;;;;;7.78;3.30;;;17.80;99.90;;;;;;5045801;28;20397;-84
2023/08/18 06:44:08;;;;;;;8.93;4.47;;;17.90;99.90;;;;;;5038490;28;20468;-84
2023/08/18 06:46:34;;;;;;;9.75;4.55;;;17.90;99.90;;;;;;5047405;28;20051;-84
2023/08/18 06:49:01;;;;;;;7.57;2.92;;;17.90;99.90;;;;;;5048713;28;20041;-84
2023/08/18 06:51:27;;;;;;;9.02;3.80;;;17.90;99.90;;;;;;5041004;28;20119;-83
2023/08/18 06:54:02;;;;;;;10.50;3.75;;;17.90;99.90;;;;;;5040880;28;20556;-84
2023/08/18 06:56:28;;;;;;;10.40;4.13;;;18.00;99.90;;;;;;5043821;28;20583;-84
2023/08/18 06:58:53;;;;;;;9.63;4.40;;;18.00;99.90;;;;;;5064284;28;20116;-84
2023/08/18 07:01:19;;;;;;;8.77;3.83;;;18.00;99.90;;;;;;5035634;28;20370;-84
2023/08/18 07:03:45;;;;;;;5.60;3.58;;;18.00;99.90;;;;;;5045523;28;20037;-84
2023/08/18 07:06:11;;;;;;;10.00;4.25;;;18.10;99.90;;;;;;5037463;28;20653;-84
2023/08/18 07:08:37;;;;;;;8.90;4.70;;;18.20;99.90;;;;;;5039725;28;20045;-84
2023/08/18 07:11:02;;;;;;;9.55;3.88;;;18.20;99.90;;;;;;5046967;28;20412;-84
2023/08/18 07:13:28;;;;;;;8.95;4.40;;;18.20;99.90;;;;;;5047762;28;20419;-84
2023/08/18 07:15:54;;;;;;;7.82;4.18;;;18.20;99.90;;;;;;5041465;28;20040;-84
2023/08/18 07:18:20;;;;;;;11.75;5.30;;;18.20;99.90;;;;;;5041515;28;20041;-84
2023/08/18 07:20:46;;;;;;;8.73;4.40;;;18.20;99.90;;;;;;5042233;28;20029;-84
2023/08/18 07:23:11;;;;;;;11.13;5.30;;;18.10;99.90;;;;;;5043238;28;20045;-84
2023/08/18 07:25:39;;;;;;;10.13;5.93;;;18.20;99.90;;;;;;5048673;28;20037;-84
2023/08/18 07:28:05;;;;;;;9.18;5.40;;;18.30;99.90;;;;;;5047387;28;20037;-84
2023/08/18 07:30:31;;;;;;;9.43;5.38;;;18.30;99.90;;;;;;5047768;28;20037;-84
2023/08/18 07:32:57;;;;;;;9.57;5.00;;;18.30;99.90;;;;;;5048363;28;20035;-84
2023/08/18 07:35:24;;;;;;;14.30;6.97;;;18.30;99.90;;;;;;5019917;28;20103;-84
2023/08/18 07:37:50;;;;;;;15.15;6.95;;;18.30;99.90;;;;;;5033688;28;20041;-84
2023/08/18 07:40:16;;;;;;;16.77;6.60;;;18.30;99.90;;;;;;5037913;28;20132;-84
2023/08/18 07:42:44;;;;;;;21.10;8.32;;;18.30;99.90;;;;;;5040717;28;20117;-83
2023/08/18 07:45:10;;;;;;;27.05;9.25;;;18.40;99.90;;;;;;5047688;28;20119;-83
2023/08/18 07:47:38;;;;;;;25.85;9.20;;;18.40;99.90;;;;;;5043480;28;20045;-83
2023/08/18 07:50:09;;;;;;;24.40;9.18;;;18.50;99.90;;;;;;5055708;28;20063;-83
2023/08/18 07:52:35;;;;;;;17.33;7.15;;;18.50;99.90;;;;;;5061923;28;20552;-83
2023/08/18 07:55:02;;;;;;;22.17;8.63;;;18.50;99.90;;;;;;5034060;28;20048;-83
2023/08/18 07:57:27;;;;;;;22.90;8.48;;;18.60;99.90;;;;;;5046919;28;20076;-83
2023/08/18 07:59:53;;;;;;;17.00;7.38;;;18.60;99.90;;;;;;5055112;28;20075;-83
2023/08/18 08:02:19;;;;;;;19.13;7.00;;;18.60;99.90;;;;;;5043855;28;20037;-83
2023/08/18 08:04:45;;;;;;;18.55;6.25;;;18.70;99.90;;;;;;5043387;28;20079;-84
2023/08/18 08:07:11;;;;;;;23.67;8.15;;;18.70;99.90;;;;;;5049172;28;20037;-83
2023/08/18 08:09:36;;;;;;;16.88;6.82;;;18.70;99.90;;;;;;5055150;28;20036;-83
2023/08/18 08:12:03;;;;;;;15.60;6.07;;;18.80;99.90;;;;;;5060694;28;20036;-83
2023/08/18 08:14:28;;;;;;;18.33;6.95;;;18.80;99.90;;;;;;5067411;28;20107;-84
2023/08/18 08:16:54;;;;;;;17.58;6.90;;;18.90;99.90;;;;;;5030399;28;20639;-84
2023/08/18 08:19:19;;;;;;;12.40;5.75;;;18.90;99.90;;;;;;5044914;28;20523;-83
2023/08/18 08:21:45;;;;;;;15.07;6.22;;;19.00;99.90;;;;;;5042290;28;20060;-83
2023/08/18 08:24:11;;;;;;;15.02;6.97;;;18.90;99.90;;;;;;5054321;28;20094;-83
2023/08/18 08:26:36;;;;;;;13.75;6.20;;;19.00;99.90;;;;;;5035738;28;20123;-83
2023/08/18 08:29:02;;;;;;;12.68;6.30;;;19.00;99.90;;;;;;5049856;28;20098;-83
2023/08/18 08:31:28;;;;;;;16.92;6.07;;;19.10;99.90;;;;;;5050319;28;20360;-83
2023/08/18 08:33:54;;;;;;;14.10;6.47;;;19.10;99.90;;;;;;5050552;28;20036;-83
2023/08/18 08:36:19;;;;;;;10.57;4.65;;;19.20;99.90;;;;;;5048699;28;20098;-83
2023/08/18 08:38:45;;;;;;;10.00;5.13;;;19.20;99.90;;;;;;5044847;28;20424;-83
2023/08/18 08:41:11;;;;;;;12.45;5.70;;;19.20;99.90;;;;;;5056950;28;20037;-84
2023/08/18 08:43:48;;;;;;;10.45;5.35;;;19.20;99.90;;;;;;5047437;28;20400;-83
2023/08/18 08:46:15;;;;;;;10.50;5.65;;;19.20;99.90;;;;;;5049485;28;20051;-83
2023/08/18 08:48:45;;;;;;;14.45;6.53;;;19.20;99.90;;;;;;5047924;28;20051;-83
2023/08/18 08:51:12;;;;;;;11.13;5.95;;;19.30;99.90;;;;;;5050188;28;20045;-84
2023/08/18 08:53:40;;;;;;;13.52;6.13;;;19.30;99.90;;;;;;5066385;28;20043;-83
2023/08/18 08:56:07;;;;;;;12.40;6.63;;;19.30;99.90;;;;;;5059405;28;20024;-83
2023/08/18 08:58:34;;;;;;;11.13;5.75;;;19.30;99.90;;;;;;5045830;28;20040;-83
2023/08/18 09:01:06;;;;;;;12.43;5.90;;;19.40;99.90;;;;;;5038496;28;20472;-83
2023/08/18 09:03:33;;;;;;;12.75;5.95;;;19.40;99.90;;;;;;5027328;28;20086;-83
2023/08/18 09:05:59;;;;;;;12.20;5.70;;;19.50;99.90;;;;;;5038925;28;20064;-83
2023/08/18 09:08:24;;;;;;;12.50;6.75;;;19.50;99.90;;;;;;5057328;28;20033;-84
2023/08/18 09:10:51;;;;;;;12.48;6.20;;;19.60;99.90;;;;;;5059916;28;20483;-83
2023/08/18 09:13:17;;;;;;;14.45;6.45;;;19.60;99.90;;;;;;5043227;28;20047;-84
2023/08/18 09:15:44;;;;;;;11.68;6.50;;;19.70;99.90;;;;;;5044871;28;20192;-83
2023/08/18 09:18:14;;;;;;;7.82;4.35;;;19.80;99.90;;;;;;5045803;28;20614;-83
2023/08/18 09:20:42;;;;;;;11.18;6.55;;;19.80;99.90;;;;;;5035956;28;20395;-83
2023/08/18 09:23:07;;;;;;;10.50;6.03;;;19.90;99.90;;;;;;5038221;28;20056;-84
2023/08/18 09:25:34;;;;;;;11.75;6.85;;;20.00;99.90;;;;;;5042939;28;20024;-84
2023/08/18 09:28:04;;;;;;;11.70;6.38;;;20.10;99.90;;;;;;5043932;28;20036;-83
2023/08/18 09:30:47;;;;;;;11.20;6.18;;;20.20;99.90;;;;;;5067279;28;20112;-83
2023/08/18 09:33:12;;;;;;;13.57;6.55;;;20.40;99.90;;;;;;5045887;28;20055;-84
2023/08/18 09:35:38;;;;;;;12.00;6.95;;;20.50;99.90;;;;;;5059705;28;20041;-84
2023/08/18 09:38:04;;;;;;;11.18;6.55;;;20.60;99.90;;;;;;5060927;28;20055;-84
2023/08/18 09:40:29;;;;;;;11.77;6.65;;;20.80;99.90;;;;;;5045807;28;20403;-84
2023/08/18 09:42:56;;;;;;;10.25;6.35;;;20.90;99.90;;;;;;5063379;28;20090;-84
2023/08/18 09:45:24;;;;;;;12.48;6.00;;;21.00;99.90;;;;;;5041529;28;20044;-83
2023/08/18 09:47:54;;;;;;;12.82;6.70;;;21.00;99.90;;;;;;5061912;28;20071;-84
2023/08/18 09:50:25;;;;;;;11.00;6.10;;;21.10;99.90;;;;;;5030540;28;20065;-83
2023/08/18 09:52:53;;;;;;;7.82;5.35;;;21.10;99.90;;;;;;5036794;28;20058;-83
2023/08/18 09:55:33;;;;;;;11.98;6.80;;;21.10;99.90;;;;;;5056774;28;20052;-84
2023/08/18 09:58:06;;;;;;;11.35;6.75;;;21.10;99.90;;;;;;5063466;28;20047;-84
2023/08/18 10:00:34;;;;;;;11.85;6.75;;;21.10;99.90;;;;;;5044445;28;20454;-84
2023/08/18 10:03:03;;;;;;;14.23;7.55;;;21.20;99.90;;;;;;5045102;28;20438;-83
2023/08/18 10:05:55;;;;;;;9.00;6.18;;;21.20;99.90;;;;;;5041057;28;20072;-83
2023/08/18 10:08:25;;;;;;;10.63;7.20;;;21.20;99.90;;;;;;5060280;28;20145;-84
2023/08/18 10:10:51;;;;;;;11.43;7.03;;;21.20;99.90;;;;;;5063713;28;20033;-83
2023/08/18 10:13:17;;;;;;;12.10;6.70;;;21.30;99.90;;;;;;5067262;28;20036;-84
2023/08/18 10:15:44;;;;;;;8.90;6.03;;;21.30;99.90;;;;;;5048577;28;20689;-83
2023/08/18 10:18:11;;;;;;;10.77;6.78;;;21.40;99.90;;;;;;5066930;28;20044;-84
2023/08/18 10:20:49;;;;;;;9.82;6.75;;;21.40;99.90;;;;;;5047948;28;20032;-84
2023/08/18 10:23:16;;;;;;;11.35;7.07;;;21.50;99.90;;;;;;5040198;28;20516;-84
2023/08/18 10:25:45;;;;;;;11.27;6.68;;;21.50;99.90;;;;;;5040818;28;20037;-84
2023/08/18 10:28:14;;;;;;;12.50;7.20;;;21.60;99.90;;;;;;5058258;28;20037;-84
2023/08/18 10:30:40;;;;;;;9.77;6.43;;;21.60;99.90;;;;;;5047400;28;20052;-84
2023/08/18 10:33:07;;;;;;;12.07;6.93;;;21.70;99.90;;;;;;5045276;28;20123;-84
2023/08/18 10:35:41;;;;;;;10.02;6.97;;;21.70;99.90;;;;;;5023082;28;20033;-84
2023/08/18 10:38:07;;;;;;;10.68;6.75;;;21.80;99.90;;;;;;5015180;28;20069;-84
2023/08/18 10:40:35;;;;;;;9.95;6.70;;;21.80;99.90;;;;;;5044467;28;20033;-84
2023/08/18 10:43:04;;;;;;;10.77;6.28;;;21.80;99.90;;;;;;5039335;28;20049;-84
2023/08/18 10:45:30;;;;;;;8.70;6.18;;;21.80;99.90;;;;;;5048067;28;20055;-83
2023/08/18 10:48:01;;;;;;;8.93;6.03;;;21.80;99.90;;;;;;5044927;28;20090;-84
2023/08/18 10:50:53;;;;;;;7.82;5.55;;;21.90;99.90;;;;;;5029337;28;20084;-84
2023/08/18 10:53:18;;;;;;;10.85;6.32;;;21.90;99.90;;;;;;5056022;28;20049;-84
2023/08/18 10:55:44;;;;;;;9.30;6.75;;;22.00;99.90;;;;;;5049077;28;20178;-84
2023/08/18 10:58:10;;;;;;;11.98;6.50;;;22.00;99.90;;;;;;5048804;28;20059;-84
2023/08/18 11:00:37;;;;;;;9.93;6.45;;;22.00;99.90;;;;;;5065519;28;20053;-84
2023/08/18 11:03:05;;;;;;;11.15;5.75;;;22.10;99.90;;;;;;5052405;28;20041;-84
2023/08/18 11:05:31;;;;;;;11.00;6.82;;;22.10;99.90;;;;;;5047664;28;20037;-84
2023/08/18 11:07:58;;;;;;;8.27;6.45;;;22.20;99.90;;;;;;5050618;28;20036;-84
2023/08/18 11:10:25;;;;;;;9.18;6.47;;;22.30;99.90;;;;;;5044745;28;20047;-84
2023/08/18 11:12:53;;;;;;;10.13;6.72;;;22.30;99.90;;;;;;5034548;28;20072;-84
2023/08/18 11:15:20;;;;;;;13.23;6.93;;;22.40;99.90;;;;;;5059205;28;20056;-84
2023/08/18 11:17:47;;;;;;;8.52;6.70;;;22.50;99.90;;;;;;5062330;28;20035;-84
2023/08/18 11:20:14;;;;;;;9.57;6.75;;;22.50;99.90;;;;;;5034563;28;20087;-84
2023/08/18 11:22:44;;;;;;;11.48;6.57;;;22.50;99.90;;;;;;5026233;28;20037;-84
2023/08/18 11:25:11;;;;;;;9.98;6.53;;;22.60;99.90;;;;;;5048383;28;20032;-84
2023/08/18 11:27:40;;;;;;;9.02;6.03;;;22.60;99.90;;;;;;5045622;28;20111;-84
2023/08/18 11:30:11;;;;;;;9.48;6.38;;;22.60;99.90;;;;;;5046303;28;20064;-84
2023/08/18 11:32:37;;;;;;;9.02;5.82;;;22.70;99.90;;;;;;5031665;28;20037;-84
2023/08/18 11:35:09;;;;;;;10.52;6.93;;;22.80;99.90;;;;;;5027508;28;20127;-84
2023/08/18 11:37:46;;;;;;;8.70;7.07;;;22.90;99.90;;;;;;5058366;28;20492;-84
2023/08/18 11:40:13;;;;;;;9.05;6.28;;;23.00;99.90;;;;;;5048720;28;20263;-84
2023/08/18 11:42:44;;;;;;;8.50;6.78;;;23.10;99.90;;;;;;5049448;28;20078;-84
2023/08/18 11:45:11;;;;;;;9.02;5.80;;;23.30;99.90;;;;;;5049371;28;20056;-84
2023/08/18 11:47:38;;;;;;;9.00;6.50;;;23.40;99.90;;;;;;5041800;28;20434;-84
2023/08/18 11:50:06;;;;;;;8.93;6.40;;;23.50;99.90;;;;;;5064637;28;20110;-84
2023/08/18 11:52:50;;;;;;;9.18;6.18;;;23.50;99.90;;;;;;5040272;28;20114;-84
2023/08/18 11:55:27;;;;;;;8.85;5.90;;;23.50;99.90;;;;;;5059670;28;20033;-84
2023/08/18 11:57:53;;;;;;;8.80;6.28;;;23.50;99.90;;;;;;5036925;28;20037;-84
2023/08/18 12:00:20;;;;;;;9.05;6.93;;;23.50;99.90;;;;;;5031605;28;20106;-84
2023/08/18 12:02:47;;;;;;;10.55;6.93;;;23.50;99.90;;;;;;5041225;28;20606;-84
2023/08/18 12:05:21;;;;;;;9.30;6.63;;;23.50;99.90;;;;;;5030064;28;20063;-84
2023/08/18 12:08:10;;;;;;;11.15;6.70;;;23.50;99.90;;;;;;5068518;28;20056;-84
2023/08/18 12:10:36;;;;;;;11.25;7.13;;;23.40;99.90;;;;;;5062486;28;20115;-84
2023/08/18 12:13:03;;;;;;;10.20;7.35;;;23.40;99.90;;;;;;5064306;28;20040;-84
2023/08/18 12:15:29;;;;;;;9.13;7.40;;;23.30;99.90;;;;;;5042457;28;20048;-84
2023/08/18 12:17:55;;;;;;;15.48;8.75;;;23.30;99.90;;;;;;5035811;28;20367;-84
2023/08/18 12:20:23;;;;;;;10.98;7.38;;;23.30;99.90;;;;;;5065496;28;20033;-84
2023/08/18 12:22:50;;;;;;;10.27;7.50;;;23.20;99.90;;;;;;5045973;28;20465;-84
2023/08/18 12:25:17;;;;;;;11.13;8.15;;;23.20;99.90;;;;;;5039259;28;20032;-84
2023/08/18 12:27:50;;;;;;;12.50;8.48;;;23.20;99.90;;;;;;5046211;28;20079;-84
2023/08/18 12:30:17;;;;;;;10.10;7.78;;;23.50;99.90;;;;;;5044296;28;20105;-84
2023/08/18 12:32:46;;;;;;;13.32;9.20;;;23.80;99.90;;;;;;5049458;28;20052;-84
2023/08/18 12:35:13;;;;;;;12.00;8.98;;;24.20;99.90;;;;;;5048596;28;20048;-84
2023/08/18 12:37:40;;;;;;;9.25;7.10;;;24.50;99.90;;;;;;5044420;28;20087;-84
2023/08/18 12:40:07;;;;;;;12.02;7.85;;;24.80;99.90;;;;;;5050160;28;20036;-84
2023/08/18 12:42:33;;;;;;;10.85;7.38;;;25.10;99.90;;;;;;5061618;28;20036;-84